Time;durP1;ratioP1;P1;durP2;ratioP2;P2;SDS_P1;SDS_P2;PMS_P1;PMS_P2;Temp;Humidity;BMP_temperature;BMP_pressure;BME280_temperature;BME280_humidity;BME280_pressure;Samples;Min_cycle;Max_cycle;Signal;HPM_P1;HPM_P2
2021/05/25 00:02:26;;;;;;;0.20;0.20;;;9.80;99.90;;;;;;4997135;28;20077;-73
2021/05/25 00:04:53;;;;;;;0.90;0.30;;;9.70;99.90;;;;;;5009490;28;20153;-73
2021/05/25 00:07:20;;;;;;;0.40;0.30;;;9.70;99.90;;;;;;5005217;28;20050;-72
2021/05/25 00:09:47;;;;;;;0.17;0.17;;;9.70;99.90;;;;;;5006292;28;20057;-73
2021/05/25 00:12:13;;;;;;;1.13;0.32;;;9.70;99.90;;;;;;5015822;28;20046;-73
2021/05/25 00:14:40;;;;;;;0.30;0.30;;;9.70;99.90;;;;;;5008627;28;20058;-72
2021/05/25 00:17:07;;;;;;;0.20;0.20;;;9.60;99.90;;;;;;5001447;28;20072;-72
2021/05/25 00:19:34;;;;;;;0.50;0.30;;;9.60;99.90;;;;;;4999084;28;20132;-73
2021/05/25 00:22:01;;;;;;;0.30;0.20;;;9.60;99.90;;;;;;5002160;28;20078;-73
2021/05/25 00:24:27;;;;;;;0.35;0.15;;;9.60;99.90;;;;;;5005308;28;20050;-73
2021/05/25 00:26:54;;;;;;;0.80;0.30;;;9.60;99.90;;;;;;4996492;28;20136;-72
2021/05/25 00:29:21;;;;;;;0.38;0.30;;;9.50;99.90;;;;;;5001995;28;20046;-72
2021/05/25 00:31:48;;;;;;;0.30;0.30;;;9.50;99.90;;;;;;4998864;28;20057;-72
2021/05/25 00:34:14;;;;;;;0.50;0.30;;;9.40;99.90;;;;;;5003927;28;20104;-72
2021/05/25 00:36:41;;;;;;;1.52;0.35;;;9.40;99.90;;;;;;5005274;28;20045;-72
2021/05/25 00:39:20;;;;;;;1.30;0.40;;;9.40;99.90;;;;;;5004377;28;20054;-72
2021/05/25 00:41:47;;;;;;;0.45;0.38;;;9.40;99.90;;;;;;4999516;28;20153;-71
2021/05/25 00:44:14;;;;;;;0.52;0.40;;;9.30;99.90;;;;;;5003781;28;20049;-72
2021/05/25 00:46:41;;;;;;;0.82;0.40;;;9.30;99.90;;;;;;5002503;28;20062;-72
2021/05/25 00:49:09;;;;;;;1.05;0.40;;;9.30;99.90;;;;;;5007561;28;20050;-72
2021/05/25 00:51:36;;;;;;;1.80;0.57;;;9.30;99.90;;;;;;5001382;28;20061;-72
2021/05/25 00:54:03;;;;;;;1.92;0.73;;;9.30;99.90;;;;;;5007301;28;20097;-72
2021/05/25 00:56:31;;;;;;;0.47;0.40;;;9.30;99.90;;;;;;4998007;28;20406;-72
2021/05/25 00:59:05;;;;;;;0.50;0.40;;;9.30;99.90;;;;;;5004386;28;20356;-72
2021/05/25 01:01:31;;;;;;;0.70;0.40;;;9.30;99.90;;;;;;5001931;28;20094;-72
2021/05/25 01:03:58;;;;;;;1.75;0.20;;;9.30;99.90;;;;;;5003191;28;20104;-72
2021/05/25 01:06:25;;;;;;;2.42;0.30;;;9.30;99.90;;;;;;5000583;28;20493;-72
2021/05/25 01:08:52;;;;;;;0.47;0.30;;;9.30;99.90;;;;;;5002199;28;20104;-72
2021/05/25 01:11:21;;;;;;;0.70;0.40;;;9.30;99.90;;;;;;4999395;28;20458;-71
2021/05/25 01:13:50;;;;;;;;;;;9.30;99.90;;;;;;5003297;28;20502;-72
2021/05/25 01:16:18;;;;;;;0.40;0.30;;;9.30;99.90;;;;;;4999537;28;19922;-73
2021/05/25 01:18:45;;;;;;;0.67;0.40;;;9.30;99.90;;;;;;5000532;28;20112;-72
2021/05/25 01:21:12;;;;;;;0.40;0.40;;;9.30;99.90;;;;;;5005759;28;20465;-72
2021/05/25 01:23:40;;;;;;;0.95;0.50;;;9.30;99.90;;;;;;5004725;28;20100;-72
2021/05/25 01:26:07;;;;;;;1.02;0.60;;;9.40;99.90;;;;;;5007945;28;20054;-72
2021/05/25 01:28:36;;;;;;;1.63;1.05;;;9.40;99.90;;;;;;5004602;28;20046;-71
2021/05/25 01:31:04;;;;;;;0.75;0.70;;;9.40;99.90;;;;;;5002502;28;20457;-72
2021/05/25 01:33:32;;;;;;;0.90;0.70;;;9.40;99.90;;;;;;5001662;28;20135;-72
2021/05/25 01:35:59;;;;;;;1.38;0.80;;;9.40;99.90;;;;;;5000972;28;20102;-72
2021/05/25 01:38:26;;;;;;;1.40;0.80;;;9.30;99.90;;;;;;5002943;28;20042;-72
2021/05/25 01:40:55;;;;;;;0.80;0.80;;;9.30;99.90;;;;;;5002747;28;20050;-72
2021/05/25 01:43:23;;;;;;;2.33;0.95;;;9.40;99.90;;;;;;4999221;28;20145;-72
2021/05/25 01:45:50;;;;;;;1.50;0.80;;;9.30;99.90;;;;;;5003784;28;20175;-72
2021/05/25 01:48:18;;;;;;;2.50;1.00;;;9.30;99.90;;;;;;5006884;28;20046;-72
2021/05/25 01:50:45;;;;;;;2.03;1.30;;;9.30;99.90;;;;;;5002437;28;20050;-73
2021/05/25 01:53:17;;;;;;;1.80;1.40;;;9.20;99.90;;;;;;5014600;28;20451;-72
2021/05/25 01:59:32;;;;;;;;;;;9.10;99.90;;;;;;5002868;28;20040;-72
2021/05/25 02:01:58;;;;;;;4.00;2.22;;;9.00;99.90;;;;;;4999683;28;19960;-72
2021/05/25 02:04:25;;;;;;;3.72;2.10;;;8.90;99.90;;;;;;4998710;28;20049;-72
2021/05/25 02:06:53;;;;;;;4.28;2.42;;;8.90;99.90;;;;;;4999255;28;20069;-72
2021/05/25 02:09:20;;;;;;;3.10;2.03;;;8.80;99.90;;;;;;5002662;28;20046;-72
2021/05/25 02:11:47;;;;;;;4.60;2.60;;;8.80;99.90;;;;;;5005474;28;20045;-71
2021/05/25 02:14:13;;;;;;;3.42;2.20;;;8.80;99.90;;;;;;4999254;28;20078;-72
2021/05/25 02:16:40;;;;;;;3.13;2.10;;;8.80;99.90;;;;;;5002582;28;20053;-72
2021/05/25 02:19:07;;;;;;;2.80;1.80;;;8.80;99.90;;;;;;5015368;28;20046;-72
2021/05/25 02:21:35;;;;;;;3.40;2.03;;;8.80;99.90;;;;;;5013465;28;20068;-72
2021/05/25 02:24:01;;;;;;;3.28;1.90;;;8.80;99.90;;;;;;5005505;28;20042;-71
2021/05/25 02:26:28;;;;;;;5.60;2.30;;;8.70;99.90;;;;;;5002848;28;20442;-72
2021/05/25 02:28:55;;;;;;;3.55;2.08;;;8.70;99.90;;;;;;5019603;28;20498;-71
2021/05/25 02:31:22;;;;;;;2.65;1.80;;;8.70;99.90;;;;;;5004908;28;21425;-71
2021/05/25 02:33:49;;;;;;;3.85;2.00;;;8.70;99.90;;;;;;5009435;28;20049;-72
2021/05/25 02:36:15;;;;;;;3.67;2.28;;;8.70;99.90;;;;;;5004223;28;20478;-72
2021/05/25 02:38:42;;;;;;;4.30;2.10;;;8.60;99.90;;;;;;5020838;28;20505;-72
2021/05/25 02:41:09;;;;;;;2.78;1.80;;;8.60;99.90;;;;;;5002393;28;20062;-72
2021/05/25 02:43:37;;;;;;;4.13;1.70;;;8.50;99.90;;;;;;5005906;28;20065;-72
2021/05/25 02:46:03;;;;;;;2.40;1.63;;;8.50;99.90;;;;;;4998329;28;20104;-72
2021/05/25 02:48:30;;;;;;;3.17;1.70;;;8.50;99.90;;;;;;5003426;28;20510;-72
2021/05/25 02:50:58;;;;;;;3.72;1.73;;;8.50;99.90;;;;;;5002172;28;20113;-72
2021/05/25 02:53:25;;;;;;;3.30;1.67;;;8.60;99.90;;;;;;5022872;28;20096;-72
2021/05/25 02:55:53;;;;;;;3.08;1.67;;;8.60;99.90;;;;;;5003748;28;20456;-72
2021/05/25 02:58:19;;;;;;;2.22;1.80;;;8.50;99.90;;;;;;5002924;28;20050;-72
2021/05/25 03:00:47;;;;;;;1.90;1.60;;;8.50;99.90;;;;;;5005202;28;20081;-72
2021/05/25 03:03:15;;;;;;;3.28;1.70;;;8.50;99.90;;;;;;4999767;28;20050;-71
2021/05/25 03:05:44;;;;;;;2.83;1.70;;;8.50;99.90;;;;;;4995920;28;20119;-72
2021/05/25 03:08:12;;;;;;;2.55;1.67;;;8.40;99.90;;;;;;4999256;28;20060;-71
2021/05/25 03:10:42;;;;;;;2.53;1.27;;;8.40;99.90;;;;;;5001661;28;20095;-72
2021/05/25 03:13:12;;;;;;;2.25;1.20;;;8.40;99.90;;;;;;5001124;28;20539;-72
2021/05/25 03:15:42;;;;;;;2.08;1.23;;;8.40;99.90;;;;;;4996937;28;20780;-72
2021/05/25 03:18:10;;;;;;;2.33;1.15;;;8.40;99.90;;;;;;5007344;28;20065;-72
2021/05/25 03:20:38;;;;;;;2.78;1.17;;;8.40;99.90;;;;;;5000694;28;20049;-72
2021/05/25 03:23:06;;;;;;;1.23;1.13;;;8.40;99.90;;;;;;5001695;28;20184;-72
2021/05/25 03:25:34;;;;;;;2.42;1.35;;;8.30;99.90;;;;;;4997212;28;20060;-71
2021/05/25 03:31:33;;;;;;;2.60;1.40;;;8.30;99.90;;;;;;5008229;28;20050;-72
2021/05/25 03:34:00;;;;;;;2.42;1.27;;;8.20;99.90;;;;;;5016060;28;20050;-72
2021/05/25 03:36:27;;;;;;;1.27;1.15;;;8.20;99.90;;;;;;5005104;28;20085;-72
2021/05/25 03:38:54;;;;;;;2.25;1.13;;;8.10;99.90;;;;;;5009421;28;20049;-72
2021/05/25 03:41:20;;;;;;;1.88;1.10;;;8.10;99.90;;;;;;5005596;28;20108;-72
2021/05/25 03:43:47;;;;;;;1.50;1.20;;;8.10;99.90;;;;;;5006112;28;20108;-72
2021/05/25 03:46:14;;;;;;;2.25;1.20;;;8.10;99.90;;;;;;5002363;28;20045;-72
2021/05/25 03:48:41;;;;;;;1.65;1.33;;;8.10;99.90;;;;;;5014203;28;20115;-72
2021/05/25 03:51:07;;;;;;;2.22;1.15;;;8.00;99.90;;;;;;5006353;28;20077;-72
2021/05/25 03:53:35;;;;;;;2.72;1.58;;;8.00;99.90;;;;;;5005351;28;20196;-72
2021/05/25 03:58:49;;;;;;;2.53;1.70;;;8.00;99.90;;;;;;5000646;28;20051;-72
2021/05/25 04:01:22;;;;;;;1.95;1.55;;;8.00;99.90;;;;;;5019676;28;20068;-72
2021/05/25 04:03:56;;;;;;;3.35;1.92;;;8.00;99.90;;;;;;5005327;28;20058;-73
2021/05/25 04:06:23;;;;;;;2.95;1.77;;;8.00;99.90;;;;;;5009855;28;20115;-73
2021/05/25 04:08:50;;;;;;;3.30;1.70;;;8.00;99.90;;;;;;5006406;28;20149;-72
2021/05/25 04:11:17;;;;;;;2.20;1.58;;;8.00;99.90;;;;;;5010409;28;20049;-72
2021/05/25 04:13:44;;;;;;;3.80;2.00;;;8.00;99.90;;;;;;5007624;28;20097;-72
2021/05/25 04:16:13;;;;;;;3.10;2.10;;;8.10;99.90;;;;;;4999361;28;20046;-72
2021/05/25 04:18:41;;;;;;;3.38;2.00;;;8.10;99.90;;;;;;5005082;28;20045;-72
2021/05/25 04:21:09;;;;;;;3.85;1.98;;;8.20;99.90;;;;;;5001336;28;20049;-72
2021/05/25 04:23:37;;;;;;;2.00;1.60;;;8.20;99.90;;;;;;5007555;28;20056;-72
2021/05/25 04:26:04;;;;;;;4.90;2.60;;;8.20;99.90;;;;;;4999316;28;20097;-72
2021/05/25 04:28:31;;;;;;;2.70;1.92;;;8.30;99.90;;;;;;5007574;28;20124;-72
2021/05/25 04:30:58;;;;;;;4.32;2.53;;;8.30;99.90;;;;;;5001881;28;20053;-72
2021/05/25 04:33:26;;;;;;;4.20;2.70;;;8.40;99.90;;;;;;5011147;28;20069;-73
2021/05/25 04:35:52;;;;;;;4.22;2.80;;;8.40;99.90;;;;;;5007684;28;20037;-72
2021/05/25 04:38:20;;;;;;;3.80;2.50;;;8.40;99.90;;;;;;5008422;28;20046;-73
2021/05/25 04:40:47;;;;;;;5.25;2.78;;;8.50;99.90;;;;;;5009556;28;20494;-72
2021/05/25 04:54:42;;;;;;;4.85;2.80;;;8.60;99.90;;;;;;5026817;28;20125;-73
2021/05/25 05:00:56;;;;;;;6.70;3.10;;;8.70;99.90;;;;;;5022230;28;20033;-72
2021/05/25 05:03:25;;;;;;;4.78;2.40;;;8.80;99.90;;;;;;5032972;28;20499;-72
2021/05/25 05:05:51;;;;;;;;;;;8.80;99.90;;;;;;5024818;28;20061;-72
2021/05/25 05:08:27;;;;;;;3.45;2.78;;;8.90;99.90;;;;;;5028285;28;20805;-72
2021/05/25 05:10:54;;;;;;;4.20;3.05;;;9.00;99.90;;;;;;5025142;28;20114;-72
2021/05/25 05:13:21;;;;;;;3.88;2.67;;;9.10;99.90;;;;;;5029220;28;20049;-72
2021/05/25 05:15:47;;;;;;;5.93;2.58;;;9.10;99.90;;;;;;5027083;28;20358;-72
2021/05/25 05:18:14;;;;;;;3.63;2.30;;;9.20;99.90;;;;;;5007392;28;20050;-73
2021/05/25 05:20:41;;;;;;;3.67;2.67;;;9.20;99.90;;;;;;5025622;28;20477;-72
2021/05/25 05:23:08;;;;;;;4.75;3.00;;;9.20;99.90;;;;;;5012483;28;20061;-72
2021/05/25 05:25:38;;;;;;;3.63;2.80;;;9.20;99.90;;;;;;5029216;28;20090;-72
2021/05/25 05:28:04;;;;;;;4.18;2.78;;;9.20;99.90;;;;;;5021630;28;20573;-72
2021/05/25 05:30:31;;;;;;;5.65;3.40;;;9.20;99.90;;;;;;5010069;28;20080;-72
2021/05/25 05:32:58;;;;;;;4.43;3.22;;;9.20;99.90;;;;;;5023646;28;20758;-72
2021/05/25 05:35:25;;;;;;;4.72;2.70;;;9.20;99.90;;;;;;5024805;28;20104;-72
2021/05/25 05:37:52;;;;;;;4.55;2.88;;;9.20;99.90;;;;;;5028242;28;20115;-72
2021/05/25 05:40:18;;;;;;;4.55;3.03;;;9.30;99.90;;;;;;5024559;28;20083;-72
2021/05/25 05:43:03;;;;;;;5.55;3.45;;;9.30;99.90;;;;;;5030339;28;20073;-72
2021/05/25 05:45:31;;;;;;;4.00;3.10;;;9.40;99.90;;;;;;5025306;28;20088;-72
2021/05/25 05:47:57;;;;;;;6.20;3.40;;;9.40;99.90;;;;;;5025620;28;20106;-72
2021/05/25 05:50:24;;;;;;;2.75;2.05;;;9.50;99.90;;;;;;5029719;28;20073;-72
2021/05/25 05:52:51;;;;;;;5.70;3.50;;;9.40;99.90;;;;;;5021764;28;20112;-72
2021/05/25 05:55:18;;;;;;;5.32;3.20;;;9.50;99.90;;;;;;5017971;28;20049;-73
2021/05/25 05:57:49;;;;;;;6.50;3.70;;;9.50;99.90;;;;;;4993531;28;20384;-72
2021/05/25 06:00:17;;;;;;;5.97;3.65;;;9.50;99.90;;;;;;5014445;28;20060;-72
2021/05/25 06:02:43;;;;;;;4.63;3.20;;;9.50;99.90;;;;;;5014223;28;20096;-73
2021/05/25 06:05:11;;;;;;;5.70;3.30;;;9.50;99.90;;;;;;5021342;28;20145;-72
2021/05/25 06:07:38;;;;;;;5.43;3.90;;;9.50;99.90;;;;;;5017105;28;20104;-72
2021/05/25 06:10:06;;;;;;;4.53;3.35;;;9.60;99.90;;;;;;5026427;28;20049;-73
2021/05/25 06:12:33;;;;;;;4.00;3.20;;;9.70;99.90;;;;;;5023835;28;20041;-73
2021/05/25 06:15:01;;;;;;;4.20;2.88;;;9.80;99.90;;;;;;4998786;28;20533;-72
2021/05/25 06:17:28;;;;;;;4.10;2.90;;;9.90;99.90;;;;;;5018571;28;20379;-72
2021/05/25 06:19:55;;;;;;;4.63;3.30;;;9.90;99.90;;;;;;5006075;28;20135;-72
2021/05/25 06:22:22;;;;;;;4.47;3.67;;;10.00;99.90;;;;;;5008647;28;20045;-73
2021/05/25 06:24:50;;;;;;;4.65;2.92;;;10.10;99.90;;;;;;5010601;28;20053;-73
2021/05/25 06:27:17;;;;;;;5.63;3.70;;;10.20;99.90;;;;;;5009070;28;20056;-72
2021/05/25 06:29:45;;;;;;;6.57;3.70;;;10.20;99.90;;;;;;5009952;28;20053;-72
2021/05/25 06:32:11;;;;;;;7.10;3.50;;;10.20;99.90;;;;;;5002973;28;20058;-72
2021/05/25 06:34:38;;;;;;;5.28;4.18;;;10.20;99.90;;;;;;4991711;28;20409;-73
2021/05/25 06:37:05;;;;;;;4.57;4.07;;;10.30;99.90;;;;;;5009888;28;20518;-73
2021/05/25 06:39:32;;;;;;;10.40;4.00;;;10.30;99.90;;;;;;5010393;28;20053;-73
2021/05/25 06:41:59;;;;;;;5.90;4.38;;;10.30;99.90;;;;;;5003074;28;20050;-73
2021/05/25 06:44:25;;;;;;;4.50;3.72;;;10.30;99.90;;;;;;5011982;28;20150;-73
2021/05/25 06:46:52;;;;;;;4.18;3.67;;;10.30;99.90;;;;;;5009531;28;20057;-73
2021/05/25 06:49:19;;;;;;;6.35;4.47;;;10.30;99.90;;;;;;5006241;28;20045;-73
2021/05/25 06:51:46;;;;;;;5.35;3.95;;;10.30;99.90;;;;;;5008015;28;20460;-73
2021/05/25 06:54:13;;;;;;;7.10;4.35;;;10.40;99.90;;;;;;5025676;28;20099;-73
2021/05/25 06:56:40;;;;;;;7.13;4.70;;;10.40;99.90;;;;;;5006520;28;20107;-73
2021/05/25 06:59:07;;;;;;;5.40;4.50;;;10.40;99.90;;;;;;5028237;28;20488;-72
2021/05/25 07:01:33;;;;;;;5.47;3.72;;;10.40;99.90;;;;;;5023694;28;20485;-72
2021/05/25 07:04:00;;;;;;;5.03;3.80;;;10.40;99.90;;;;;;5026637;28;20234;-72
2021/05/25 07:06:27;;;;;;;5.45;3.53;;;10.40;99.90;;;;;;5028048;28;20127;-72
2021/05/25 07:08:54;;;;;;;4.10;3.20;;;10.30;99.90;;;;;;5008831;28;20151;-71
2021/05/25 07:11:21;;;;;;;5.35;3.63;;;10.40;99.90;;;;;;5027628;28;20547;-72
2021/05/25 07:13:48;;;;;;;4.45;2.90;;;10.50;99.90;;;;;;5028816;28;20052;-72
2021/05/25 07:16:15;;;;;;;5.15;2.58;;;10.70;99.90;;;;;;5030742;28;20068;-72
2021/05/25 07:18:42;;;;;;;4.93;2.30;;;10.80;99.90;;;;;;5027873;28;20136;-72
2021/05/25 07:21:09;;;;;;;4.35;2.30;;;10.90;99.90;;;;;;5047190;28;20413;-73
2021/05/25 07:23:36;;;;;;;3.15;2.15;;;11.00;99.90;;;;;;5019036;28;20114;-72
2021/05/25 07:26:04;;;;;;;2.70;1.70;;;11.10;99.90;;;;;;5029484;28;20479;-72
2021/05/25 07:28:31;;;;;;;3.42;1.90;;;11.30;99.90;;;;;;5031477;28;20117;-72
2021/05/25 07:30:59;;;;;;;2.13;1.77;;;11.40;99.90;;;;;;5026879;28;20081;-72
2021/05/25 07:33:26;;;;;;;2.03;1.33;;;11.40;99.90;;;;;;5032931;28;20045;-72
2021/05/25 07:35:54;;;;;;;1.90;1.63;;;11.50;99.90;;;;;;5028840;28;20045;-73
2021/05/25 07:38:21;;;;;;;6.53;2.00;;;11.60;99.90;;;;;;5029681;28;20050;-72
2021/05/25 07:40:48;;;;;;;3.08;1.50;;;11.70;99.90;;;;;;5029436;28;20092;-72
2021/05/25 07:43:15;;;;;;;4.85;1.73;;;11.80;99.90;;;;;;5028155;28;20057;-72
2021/05/25 07:45:44;;;;;;;4.65;1.70;;;11.90;99.90;;;;;;5017339;28;20081;-73
2021/05/25 07:48:11;;;;;;;2.70;1.63;;;12.00;99.90;;;;;;5027272;28;20111;-72
2021/05/25 07:50:40;;;;;;;3.00;1.40;;;12.00;99.90;;;;;;5025616;28;20553;-72
2021/05/25 07:53:07;;;;;;;2.70;1.70;;;12.10;99.90;;;;;;5026298;28;20582;-72
2021/05/25 07:55:34;;;;;;;2.72;1.60;;;12.10;99.90;;;;;;5027486;28;20080;-72
2021/05/25 07:58:02;;;;;;;4.38;1.70;;;12.10;99.90;;;;;;5024934;28;20038;-72
2021/05/25 08:00:32;;;;;;;5.43;1.77;;;12.10;99.90;;;;;;5027630;28;20110;-72
2021/05/25 08:02:59;;;;;;;3.53;1.83;;;12.20;99.90;;;;;;5025006;28;20049;-72
2021/05/25 08:05:28;;;;;;;2.97;1.60;;;12.20;99.90;;;;;;5026040;28;20170;-71
2021/05/25 08:07:56;;;;;;;2.13;1.60;;;12.20;99.90;;;;;;5027226;28;20102;-72
2021/05/25 08:10:23;;;;;;;4.83;2.07;;;12.10;99.90;;;;;;5025049;28;20080;-72
2021/05/25 08:12:50;;;;;;;4.15;1.88;;;12.20;99.90;;;;;;5029634;28;20059;-72
2021/05/25 08:15:18;;;;;;;3.28;2.13;;;12.30;99.90;;;;;;5026523;28;20045;-73
2021/05/25 08:20:21;;;;;;;5.35;2.08;;;12.40;99.90;;;;;;5028214;28;20151;-73
2021/05/25 08:23:10;;;;;;;3.13;1.00;;;12.40;99.90;;;;;;5027915;28;20045;-73
2021/05/25 08:25:40;;;;;;;3.83;1.00;;;12.30;99.90;;;;;;5028813;28;20773;-72
2021/05/25 08:28:08;;;;;;;2.13;0.40;;;12.00;99.90;;;;;;5025281;28;20103;-71
2021/05/25 08:30:40;;;;;;;2.92;0.55;;;11.60;99.90;;;;;;5026243;28;20060;-71
2021/05/25 08:33:09;;;;;;;1.15;0.50;;;11.10;99.90;;;;;;5024658;28;20099;-71
2021/05/25 08:35:38;;;;;;;1.58;0.40;;;10.70;99.90;;;;;;5025961;28;20060;-71
2021/05/25 08:38:07;;;;;;;1.23;0.47;;;10.40;99.90;;;;;;5010884;28;20045;-71
2021/05/25 08:40:36;;;;;;;1.20;0.50;;;10.20;99.90;;;;;;5026590;28;20586;-71
2021/05/25 08:43:04;;;;;;;0.85;0.32;;;10.00;99.90;;;;;;5024101;28;20042;-71
2021/05/25 08:45:31;;;;;;;2.05;0.60;;;10.00;99.90;;;;;;5025351;28;20057;-71
2021/05/25 08:47:58;;;;;;;2.30;0.90;;;9.90;99.90;;;;;;5022521;28;20053;-71
2021/05/25 08:50:45;;;;;;;3.20;1.00;;;9.90;99.90;;;;;;5031073;28;20049;-71
2021/05/25 08:53:13;;;;;;;1.88;0.90;;;10.00;99.90;;;;;;5030648;28;20111;-71
2021/05/25 08:59:27;;;;;;;5.22;1.70;;;10.20;99.90;;;;;;5030952;28;20059;-71
2021/05/25 09:01:54;;;;;;;4.28;2.08;;;10.40;99.90;;;;;;5025425;28;20120;-72
2021/05/25 09:04:21;;;;;;;5.43;2.25;;;10.60;99.90;;;;;;5027031;28;20061;-72
2021/05/25 09:06:49;;;;;;;6.20;2.72;;;10.80;99.90;;;;;;5027001;28;20065;-71
2021/05/25 09:09:20;;;;;;;;;;;11.00;99.90;;;;;;5027225;28;20053;-72
2021/05/25 09:12:00;;;;;;;5.68;2.40;;;11.20;99.90;;;;;;5024911;28;19975;-72
2021/05/25 09:14:28;;;;;;;5.93;2.10;;;11.40;99.90;;;;;;5029156;28;20069;-72
2021/05/25 09:17:15;;;;;;;;;;;11.60;99.90;;;;;;5009402;28;20076;-72
2021/05/25 09:19:46;;;;;;;6.15;2.30;;;11.80;99.90;;;;;;5019676;28;19975;-72
2021/05/25 09:22:27;;;;;;;4.15;1.65;;;11.90;99.90;;;;;;5028926;28;20073;-72
2021/05/25 09:24:56;;;;;;;3.53;1.50;;;12.00;99.90;;;;;;5044221;28;20095;-72
2021/05/25 09:27:36;;;;;;;5.38;2.10;;;11.90;99.90;;;;;;5027770;28;20099;-72
2021/05/25 09:30:11;;;;;;;4.95;2.08;;;11.90;99.90;;;;;;5029079;28;20052;-71
2021/05/25 09:32:57;;;;;;;5.13;1.65;;;11.80;99.90;;;;;;5028420;28;20057;-72
2021/05/25 09:35:35;;;;;;;7.85;1.90;;;11.80;99.90;;;;;;5031010;28;20119;-72
2021/05/25 09:38:19;;;;;;;4.82;1.77;;;11.90;99.90;;;;;;5031339;28;20354;-72
2021/05/25 09:40:48;;;;;;;5.53;1.90;;;11.90;99.90;;;;;;5026864;28;20056;-72
2021/05/25 09:43:25;;;;;;;4.63;1.70;;;12.00;99.90;;;;;;5029747;28;20094;-73
2021/05/25 09:46:07;;;;;;;5.13;1.70;;;12.10;99.90;;;;;;5028042;28;20050;-72
2021/05/25 09:48:53;;;;;;;3.72;1.50;;;12.20;99.90;;;;;;5025903;28;20049;-72
2021/05/25 09:51:31;;;;;;;4.85;1.60;;;12.20;99.90;;;;;;5023932;28;20060;-73
2021/05/25 09:54:01;;;;;;;;;;;12.20;99.90;;;;;;5030483;28;20045;-72
2021/05/25 09:56:30;;;;;;;5.63;1.80;;;12.30;99.90;;;;;;5026943;28;19921;-72
2021/05/25 09:58:59;;;;;;;6.20;1.83;;;12.30;99.90;;;;;;5029236;28;20061;-72
2021/05/25 10:01:37;;;;;;;4.72;1.50;;;12.30;99.90;;;;;;5025278;28;20049;-72
2021/05/25 10:04:12;;;;;;;3.53;1.60;;;12.40;99.90;;;;;;5026231;28;20045;-72
2021/05/25 10:06:40;;;;;;;5.03;1.67;;;12.60;99.90;;;;;;5027046;28;20400;-73
2021/05/25 10:09:08;;;;;;;4.22;1.20;;;12.80;99.90;;;;;;5025367;28;20412;-72
2021/05/25 10:11:43;;;;;;;3.58;1.30;;;12.90;99.90;;;;;;5025004;28;20049;-72
2021/05/25 10:14:11;;;;;;;4.93;1.33;;;12.90;99.90;;;;;;5025873;28;20073;-72
2021/05/25 10:16:42;;;;;;;3.38;1.10;;;13.00;99.90;;;;;;5024757;28;20102;-72
2021/05/25 10:21:43;;;;;;;3.72;1.10;;;13.30;99.90;;;;;;5027486;28;20394;-73
2021/05/25 10:24:24;;;;;;;3.15;1.00;;;13.40;99.90;;;;;;5022477;28;20045;-73
2021/05/25 10:26:51;;;;;;;4.00;1.15;;;13.40;99.90;;;;;;5043467;28;20127;-72
2021/05/25 10:29:18;;;;;;;4.50;1.23;;;13.50;99.90;;;;;;5025753;28;20803;-73
2021/05/25 10:31:48;;;;;;;3.38;0.98;;;13.60;99.90;;;;;;5024370;28;20095;-73
2021/05/25 10:34:23;;;;;;;2.80;0.93;;;13.70;99.90;;;;;;5023400;28;20061;-72
2021/05/25 10:36:53;;;;;;;2.42;0.88;;;13.70;99.90;;;;;;5027336;28;20076;-72
2021/05/25 10:39:35;;;;;;;2.97;0.93;;;13.80;99.90;;;;;;5031178;28;20061;-74
2021/05/25 10:42:20;;;;;;;3.42;0.93;;;13.90;99.90;;;;;;5014168;28;20503;-72
2021/05/25 10:44:59;;;;;;;2.05;0.93;;;14.10;99.90;;;;;;5038397;28;20092;-72
2021/05/25 10:47:34;;;;;;;3.45;1.10;;;14.20;99.90;;;;;;5031661;28;20080;-73
2021/05/25 10:50:26;;;;;;;4.03;1.17;;;14.30;99.90;;;;;;5033829;28;20425;-73
2021/05/25 10:52:53;;;;;;;2.55;1.00;;;14.30;99.90;;;;;;5017276;28;20092;-72
2021/05/25 10:55:27;;;;;;;2.70;0.82;;;14.30;99.90;;;;;;5016174;28;20097;-73
2021/05/25 10:57:54;;;;;;;4.25;0.82;;;14.20;99.90;;;;;;5033283;28;20049;-72
2021/05/25 11:00:29;;;;;;;3.10;1.20;;;14.00;99.90;;;;;;5032200;28;20052;-72
2021/05/25 11:02:59;;;;;;;6.63;1.13;;;13.90;99.90;;;;;;5043546;28;20045;-72
2021/05/25 11:05:35;;;;;;;3.47;1.02;;;13.80;99.90;;;;;;5031502;28;20049;-73
2021/05/25 11:08:08;;;;;;;3.20;0.95;;;13.60;99.90;;;;;;5029367;28;20143;-72
2021/05/25 11:10:39;;;;;;;1.52;0.80;;;13.60;99.90;;;;;;5030505;28;20808;-72
2021/05/25 11:16:22;;;;;;;5.05;1.20;;;13.80;99.90;;;;;;5021346;28;20444;-72
2021/05/25 11:19:31;;;;;;;2.78;0.90;;;14.00;99.90;;;;;;5031453;28;20179;-72
2021/05/25 11:22:05;;;;;;;4.28;0.90;;;14.20;99.90;;;;;;5028835;28;20400;-72
2021/05/25 11:24:53;;;;;;;1.77;0.63;;;14.30;99.90;;;;;;5029738;28;20099;-72
2021/05/25 11:27:35;;;;;;;1.25;0.50;;;14.40;99.90;;;;;;5027779;28;20095;-72
2021/05/25 11:30:13;;;;;;;2.55;1.02;;;14.40;99.90;;;;;;5026363;28;20041;-72
2021/05/25 11:32:48;;;;;;;3.05;0.73;;;14.40;99.90;;;;;;5026582;28;20127;-72
2021/05/25 11:35:19;;;;;;;3.08;0.60;;;14.40;99.90;;;;;;5028517;28;20405;-72
2021/05/25 11:37:51;;;;;;;2.05;0.50;;;14.30;99.90;;;;;;5029585;28;20098;-72
2021/05/25 11:40:39;;;;;;;1.30;0.70;;;14.20;99.90;;;;;;5025627;28;20049;-72
2021/05/25 11:43:07;;;;;;;1.73;0.60;;;14.30;99.90;;;;;;5043803;28;20426;-72
2021/05/25 11:45:33;;;;;;;2.88;0.70;;;14.30;99.90;;;;;;5026808;28;20084;-72
2021/05/25 11:48:03;;;;;;;1.13;0.47;;;14.40;99.90;;;;;;5025875;28;20053;-72
2021/05/25 11:50:39;;;;;;;1.30;0.40;;;14.40;99.90;;;;;;5025638;28;20057;-73
2021/05/25 11:53:09;;;;;;;0.80;0.30;;;14.40;99.90;;;;;;5027903;28;20598;-71
2021/05/25 11:55:36;;;;;;;0.70;0.35;;;14.40;99.90;;;;;;5027310;28;20125;-71
2021/05/25 11:58:05;;;;;;;2.40;0.50;;;14.40;99.90;;;;;;5026809;28;20049;-72
2021/05/25 12:00:33;;;;;;;2.67;0.70;;;14.30;99.90;;;;;;5025615;28;20049;-72
2021/05/25 12:03:02;;;;;;;1.45;0.52;;;14.20;99.90;;;;;;5025895;28;20718;-73
2021/05/25 12:05:30;;;;;;;1.75;0.40;;;14.10;99.90;;;;;;5027018;28;20057;-72
2021/05/25 12:08:05;;;;;;;1.65;0.50;;;14.00;99.90;;;;;;5027843;28;20543;-72
2021/05/25 12:10:42;;;;;;;1.52;0.60;;;13.90;99.90;;;;;;5027359;28;20099;-72
2021/05/25 12:13:12;;;;;;;4.27;0.70;;;13.90;99.90;;;;;;5027916;28;20041;-72
2021/05/25 12:15:41;;;;;;;1.60;0.60;;;13.90;99.90;;;;;;5029460;28;20052;-72
2021/05/25 12:18:10;;;;;;;1.40;0.40;;;13.90;99.90;;;;;;5028612;28;20526;-72
2021/05/25 12:20:41;;;;;;;2.25;0.50;;;13.80;99.90;;;;;;5027174;28;20059;-72
2021/05/25 12:23:10;;;;;;;0.90;0.50;;;13.80;99.90;;;;;;5009238;28;20505;-72
2021/05/25 12:25:49;;;;;;;3.03;0.60;;;13.90;99.90;;;;;;5026564;28;20567;-72
2021/05/25 12:28:23;;;;;;;1.58;0.50;;;13.90;99.90;;;;;;5029302;28;20061;-72
2021/05/25 12:30:52;;;;;;;1.15;0.50;;;13.90;99.90;;;;;;5024444;28;20053;-73
2021/05/25 12:33:29;;;;;;;2.72;0.80;;;13.80;99.90;;;;;;5037297;28;20080;-72
2021/05/25 12:36:16;;;;;;;2.50;0.50;;;13.80;99.90;;;;;;5025766;28;20045;-72
2021/05/25 12:39:04;;;;;;;0.63;0.30;;;13.80;99.90;;;;;;5022585;28;20512;-72
2021/05/25 12:41:43;;;;;;;0.90;0.30;;;13.70;99.90;;;;;;5029639;28;20131;-72
2021/05/25 12:44:16;;;;;;;0.52;0.32;;;13.60;99.90;;;;;;5017511;28;20095;-72
2021/05/25 12:46:55;;;;;;;1.05;0.32;;;13.50;99.90;;;;;;5031885;28;20049;-72
2021/05/25 12:49:29;;;;;;;0.82;0.30;;;13.40;99.90;;;;;;5012660;28;20477;-72
2021/05/25 12:52:18;;;;;;;1.08;0.40;;;13.20;99.90;;;;;;5044186;28;20778;-72
2021/05/25 12:54:51;;;;;;;1.27;0.40;;;13.10;99.90;;;;;;5008860;28;20681;-72
2021/05/25 12:57:18;;;;;;;0.22;0.22;;;13.00;99.90;;;;;;5051231;28;20099;-72
2021/05/25 12:59:45;;;;;;;0.98;0.38;;;12.80;99.90;;;;;;5028170;28;20128;-72
2021/05/25 13:02:12;;;;;;;0.57;0.30;;;12.70;99.90;;;;;;5029057;28;20350;-72
2021/05/25 13:04:39;;;;;;;0.98;0.28;;;12.70;99.90;;;;;;5027368;28;20049;-73
2021/05/25 13:07:08;;;;;;;0.65;0.20;;;12.60;99.90;;;;;;5027845;28;20829;-73
2021/05/25 13:09:41;;;;;;;0.38;0.20;;;12.60;99.90;;;;;;5029599;28;20053;-72
2021/05/25 13:12:14;;;;;;;0.65;0.30;;;12.60;99.90;;;;;;5028808;28;20099;-72
2021/05/25 13:14:41;;;;;;;2.17;0.50;;;12.60;99.90;;;;;;5031489;28;20501;-73
2021/05/25 13:17:16;;;;;;;1.25;0.55;;;12.70;99.90;;;;;;5027474;28;20125;-72
2021/05/25 13:19:48;;;;;;;1.98;0.60;;;13.00;99.90;;;;;;5028864;28;20049;-72
2021/05/25 13:22:23;;;;;;;1.55;0.70;;;13.20;99.90;;;;;;5030249;28;20069;-72
2021/05/25 13:24:54;;;;;;;2.13;0.50;;;13.40;99.90;;;;;;5034384;28;20143;-72
2021/05/25 13:27:25;;;;;;;0.95;0.50;;;13.60;99.90;;;;;;5029166;28;20044;-72
2021/05/25 13:30:08;;;;;;;1.23;0.50;;;13.80;99.90;;;;;;5025962;28;20107;-72
2021/05/25 13:32:36;;;;;;;2.85;0.70;;;14.00;99.90;;;;;;5027627;28;20045;-72
2021/05/25 13:35:05;;;;;;;1.45;0.50;;;14.10;99.90;;;;;;5043606;28;20038;-72
2021/05/25 13:37:33;;;;;;;2.63;0.60;;;14.10;99.90;;;;;;5027627;28;20135;-72
2021/05/25 13:40:02;;;;;;;1.75;0.60;;;13.90;99.90;;;;;;5027963;28;20404;-72
2021/05/25 13:42:28;;;;;;;2.00;0.50;;;13.70;99.90;;;;;;5026314;28;20061;-72
2021/05/25 13:44:55;;;;;;;2.47;0.70;;;13.50;99.90;;;;;;5007828;28;20497;-72